Time;durP1;ratioP1;P1;durP2;ratioP2;P2;SDS_P1;SDS_P2;PMS_P1;PMS_P2;Temp;Humidity;BMP_temperature;BMP_pressure;BME280_temperature;BME280_humidity;BME280_pressure;Samples;Min_cycle;Max_cycle;Signal;HPM_P1;HPM_P2
2021/06/20 00:02:37;;;;;;;6.90;2.95;;;16.70;99.90;;;;;;20821416;28;20512;-48
2021/06/20 00:12:39;;;;;;;5.60;2.35;;;16.70;99.90;;;;;;20820671;28;20053;-47
2021/06/20 00:22:41;;;;;;;6.20;3.45;;;16.70;99.90;;;;;;20813417;28;21002;-47
2021/06/20 00:32:44;;;;;;;8.25;3.45;;;16.70;99.90;;;;;;20815448;28;21839;-48
2021/06/20 00:42:46;;;;;;;8.90;3.63;;;16.70;99.90;;;;;;20825109;28;20493;-49
2021/06/20 00:52:48;;;;;;;6.30;2.63;;;17.00;99.90;;;;;;20823366;28;20053;-47
2021/06/20 01:02:49;;;;;;;7.60;2.60;;;16.90;99.90;;;;;;20831375;28;20060;-47
2021/06/20 01:12:50;;;;;;;7.10;2.47;;;16.90;99.90;;;;;;20817270;28;20052;-47
2021/06/20 01:22:53;;;;;;;7.07;3.03;;;16.90;99.90;;;;;;20833206;28;20504;-47
2021/06/20 01:32:56;;;;;;;10.40;3.38;;;17.10;99.90;;;;;;20818919;28;20064;-49
2021/06/20 01:42:57;;;;;;;8.30;3.05;;;17.30;99.90;;;;;;20825714;28;20052;-47
2021/06/20 01:53:01;;;;;;;9.50;3.95;;;17.00;99.90;;;;;;20742331;28;20335;-47
2021/06/20 02:03:24;;;;;;;8.80;3.08;;;17.00;99.90;;;;;;20826681;28;20492;-47
2021/06/20 02:13:27;;;;;;;6.70;3.35;;;17.20;99.90;;;;;;20838639;28;20092;-49
2021/06/20 02:23:29;;;;;;;5.25;1.52;;;17.60;99.90;;;;;;20840626;28;20095;-50
2021/06/20 02:43:33;;;;;;;1.80;0.57;;;16.50;99.90;;;;;;20903313;28;20139;-50
2021/06/20 02:53:35;;;;;;;1.08;0.40;;;16.20;99.90;;;;;;20982142;28;20052;-49
2021/06/20 03:03:36;;;;;;;0.90;0.30;;;16.10;99.90;;;;;;20976141;28;20044;-49
2021/06/20 03:13:37;;;;;;;0.68;0.20;;;15.80;99.90;;;;;;20985881;28;20051;-49
2021/06/20 03:23:38;;;;;;;0.68;0.20;;;15.80;99.90;;;;;;20970812;28;20032;-49
2021/06/20 03:33:39;;;;;;;0.55;0.20;;;15.80;99.90;;;;;;20968500;28;20057;-49
2021/06/20 03:43:44;;;;;;;0.80;0.15;;;15.80;99.90;;;;;;20894126;28;20111;-49
2021/06/20 03:53:45;;;;;;;0.55;0.20;;;16.00;99.90;;;;;;20911026;28;20041;-49
2021/06/20 04:03:46;;;;;;;0.30;0.10;;;16.00;99.90;;;;;;20906694;28;20045;-50
2021/06/20 04:13:48;;;;;;;0.40;0.10;;;16.20;99.90;;;;;;20880435;28;20499;-49
2021/06/20 04:23:49;;;;;;;0.30;0.10;;;16.30;99.90;;;;;;20911653;28;20519;-50
2021/06/20 04:33:50;;;;;;;1.17;0.00;;;16.20;99.90;;;;;;20884848;28;20053;-48
2021/06/20 04:53:53;;;;;;;0.38;0.17;;;16.20;99.90;;;;;;20892086;28;20363;-48
2021/06/20 05:03:56;;;;;;;0.52;0.20;;;16.30;99.90;;;;;;20893031;28;20045;-47
2021/06/20 05:13:57;;;;;;;0.63;0.15;;;16.40;99.90;;;;;;20906564;28;20033;-48
2021/06/20 05:23:58;;;;;;;0.40;0.13;;;16.50;99.90;;;;;;20900188;28;20048;-48
2021/06/20 05:33:59;;;;;;;0.65;0.17;;;16.70;99.90;;;;;;20883546;28;20036;-48
2021/06/20 05:44:01;;;;;;;0.50;0.25;;;16.70;99.90;;;;;;20907886;28;20424;-50
2021/06/20 05:54:02;;;;;;;0.47;0.20;;;16.80;99.90;;;;;;20886187;28;20106;-48
2021/06/20 06:04:04;;;;;;;1.90;0.25;;;16.60;99.90;;;;;;20911516;28;20048;-49
2021/06/20 06:14:05;;;;;;;0.98;0.30;;;16.80;99.90;;;;;;20904404;28;20048;-50
2021/06/20 06:24:07;;;;;;;0.88;0.30;;;16.50;99.90;;;;;;20911304;28;20048;-49
2021/06/20 06:34:09;;;;;;;0.43;0.20;;;16.80;99.90;;;;;;20920735;28;20072;-49
2021/06/20 06:44:10;;;;;;;0.95;0.40;;;16.70;99.90;;;;;;20891979;28;20067;-49
2021/06/20 06:54:11;;;;;;;2.30;0.30;;;16.80;99.90;;;;;;20917776;28;20037;-49
2021/06/20 07:04:12;;;;;;;1.70;0.80;;;16.90;99.90;;;;;;20904931;28;20041;-49
2021/06/20 07:14:14;;;;;;;2.25;0.90;;;16.90;99.90;;;;;;20882311;28;20549;-50
2021/06/20 07:24:17;;;;;;;7.65;3.70;;;17.10;99.90;;;;;;20876035;28;20052;-52
2021/06/20 07:34:18;;;;;;;2.22;0.88;;;17.40;99.90;;;;;;20905436;28;20616;-52
2021/06/20 07:44:19;;;;;;;3.17;1.60;;;17.40;99.90;;;;;;20909725;28;20499;-52
2021/06/20 07:54:20;;;;;;;2.70;1.55;;;17.50;99.90;;;;;;20922340;28;20507;-52
2021/06/20 08:04:21;;;;;;;3.15;1.45;;;17.90;99.90;;;;;;20896728;28;20040;-52
2021/06/20 08:14:23;;;;;;;3.42;1.50;;;18.20;99.90;;;;;;20905071;28;20123;-50
2021/06/20 08:24:24;;;;;;;3.95;1.65;;;18.20;99.90;;;;;;20893173;28;20043;-49
2021/06/20 08:34:31;;;;;;;3.20;2.00;;;18.60;99.90;;;;;;20899043;28;20056;-50
2021/06/20 08:44:33;;;;;;;6.22;2.58;;;18.90;99.90;;;;;;20899624;28;20641;-51
2021/06/20 08:54:35;;;;;;;4.38;2.35;;;19.20;99.90;;;;;;20892446;28;20462;-50
2021/06/20 09:04:36;;;;;;;4.95;2.03;;;19.20;99.90;;;;;;20899443;28;20112;-50
2021/06/20 09:14:48;;;;;;;2.58;1.40;;;19.40;99.90;;;;;;20903234;28;20074;-50
2021/06/20 09:24:59;;;;;;;2.92;1.83;;;19.60;99.90;;;;;;20891154;28;20635;-50
2021/06/20 09:35:03;;;;;;;3.28;1.85;;;19.70;99.90;;;;;;20903309;28;20059;-49
2021/06/20 09:45:05;;;;;;;4.78;2.83;;;19.60;99.90;;;;;;20875789;28;20484;-50
2021/06/20 09:55:12;;;;;;;4.93;2.15;;;19.70;99.90;;;;;;20904245;28;20041;-50
2021/06/20 10:05:13;;;;;;;4.70;1.88;;;20.70;99.90;;;;;;20897371;28;20056;-50
2021/06/20 10:15:14;;;;;;;3.05;1.60;;;20.40;99.90;;;;;;20909760;28;20053;-50
2021/06/20 10:25:39;;;;;;;3.08;1.45;;;20.90;99.90;;;;;;20908608;28;20061;-50
2021/06/20 10:35:43;;;;;;;2.70;1.35;;;21.50;99.90;;;;;;20938739;28;20102;-50
2021/06/20 10:45:45;;;;;;;2.38;1.20;;;21.90;99.90;;;;;;20893886;28;20086;-50
2021/06/20 10:55:49;;;;;;;2.20;1.52;;;21.80;99.90;;;;;;20918481;28;20048;-50
2021/06/20 11:05:55;;;;;;;2.28;1.20;;;21.30;99.90;;;;;;20908996;28;20044;-50
2021/06/20 11:16:13;;;;;;;2.28;0.80;;;20.80;99.90;;;;;;20924954;28;20131;-50
2021/06/20 11:26:15;;;;;;;12.98;5.32;;;20.40;99.90;;;;;;20898230;28;20049;-49
2021/06/20 11:36:16;;;;;;;3.58;0.98;;;20.90;99.90;;;;;;20887339;28;20506;-49
2021/06/20 11:46:19;;;;;;;2.45;1.15;;;21.00;99.90;;;;;;20891303;28;20052;-50
2021/06/20 11:56:29;;;;;;;2.38;1.30;;;20.70;99.90;;;;;;20885208;28;20111;-49
2021/06/20 12:06:30;;;;;;;2.47;1.23;;;21.90;99.90;;;;;;20908543;28;20487;-50
2021/06/20 12:16:43;;;;;;;4.20;1.17;;;22.00;99.90;;;;;;20897556;28;20043;-50
2021/06/20 12:26:51;;;;;;;1.85;1.00;;;21.40;99.90;;;;;;20906413;28;20794;-50
2021/06/20 12:37:00;;;;;;;1.55;0.65;;;20.90;99.90;;;;;;20897628;28;20048;-50
2021/06/20 12:47:01;;;;;;;2.05;0.88;;;21.40;99.90;;;;;;20911480;28;20044;-50
2021/06/20 12:57:04;;;;;;;9.60;1.23;;;21.00;99.90;;;;;;20880410;28;20055;-50
2021/06/20 13:07:05;;;;;;;1.50;0.73;;;20.40;99.90;;;;;;20901992;28;20052;-50
2021/06/20 13:17:06;;;;;;;2.20;1.00;;;20.50;99.90;;;;;;20909450;28;20064;-50
2021/06/20 13:27:08;;;;;;;5.85;1.27;;;21.90;99.90;;;;;;20914502;28;20037;-50
2021/06/20 13:37:09;;;;;;;2.05;1.00;;;22.60;99.90;;;;;;20901381;28;20140;-50
2021/06/20 13:47:10;;;;;;;1.63;0.80;;;23.20;99.90;;;;;;20912727;28;20041;-50
2021/06/20 13:57:12;;;;;;;1.70;0.82;;;22.90;99.90;;;;;;20905321;28;20040;-50
2021/06/20 14:07:14;;;;;;;1.48;0.73;;;21.80;99.90;;;;;;20902191;28;20055;-50
2021/06/20 14:17:15;;;;;;;1.45;0.90;;;21.40;99.90;;;;;;20920058;28;20052;-50
2021/06/20 14:27:16;;;;;;;2.92;0.80;;;21.30;99.90;;;;;;20927028;28;20033;-50
2021/06/20 14:37:20;;;;;;;2.88;1.23;;;21.30;99.90;;;;;;20894347;28;20057;-50
2021/06/20 14:47:21;;;;;;;2.65;1.08;;;21.60;99.90;;;;;;20927766;28;20041;-50
2021/06/20 14:57:23;;;;;;;2.70;1.33;;;22.10;99.90;;;;;;20932346;28;20051;-50
2021/06/20 15:07:24;;;;;;;2.75;1.25;;;22.40;99.90;;;;;;20907782;28;20043;-50
2021/06/20 15:17:26;;;;;;;2.80;1.17;;;22.40;99.90;;;;;;20908633;28;20048;-50
2021/06/20 15:27:27;;;;;;;3.40;1.38;;;22.10;99.90;;;;;;20932834;28;20055;-50
2021/06/20 15:37:28;;;;;;;2.08;1.20;;;22.00;99.90;;;;;;20904713;28;20049;-50
2021/06/20 15:47:29;;;;;;;1.98;0.93;;;21.30;99.90;;;;;;20908155;28;20049;-50
2021/06/20 15:57:30;;;;;;;4.10;1.10;;;21.20;99.90;;;;;;20909238;28;20132;-50
2021/06/20 16:07:31;;;;;;;2.35;1.00;;;21.20;99.90;;;;;;20907240;28;20044;-50
2021/06/20 16:17:33;;;;;;;5.13;1.27;;;21.10;99.90;;;;;;20908439;28;20044;-50
2021/06/20 16:27:34;;;;;;;15.10;4.68;;;21.40;99.90;;;;;;20906322;28;20052;-50
2021/06/20 16:37:36;;;;;;;3.80;1.30;;;21.40;99.90;;;;;;20903864;28;20168;-50
2021/06/20 16:47:38;;;;;;;2.80;1.58;;;21.10;99.90;;;;;;20901227;28;20045;-50
2021/06/20 16:57:39;;;;;;;2.85;1.30;;;21.20;99.90;;;;;;20891383;28;20048;-50
2021/06/20 17:07:41;;;;;;;2.67;1.20;;;21.10;99.90;;;;;;20890457;28;20056;-50
2021/06/20 17:17:43;;;;;;;2.53;1.05;;;20.90;99.90;;;;;;20903758;28;20049;-50
2021/06/20 17:27:45;;;;;;;2.92;1.15;;;20.80;99.90;;;;;;20882092;28;20518;-50
2021/06/20 17:37:47;;;;;;;3.40;0.73;;;20.80;99.90;;;;;;20897501;28;20060;-50
2021/06/20 17:47:48;;;;;;;5.35;1.92;;;20.70;99.90;;;;;;20935357;28;20076;-50
2021/06/20 17:57:50;;;;;;;3.47;1.55;;;20.70;99.90;;;;;;20926287;28;20135;-50
2021/06/20 18:07:51;;;;;;;1.77;1.00;;;20.80;99.90;;;;;;20924139;28;20041;-50
2021/06/20 18:17:53;;;;;;;2.35;1.02;;;20.80;99.90;;;;;;20913230;28;20052;-50
2021/06/20 18:27:56;;;;;;;3.53;1.00;;;20.60;99.90;;;;;;20909157;28;20041;-50
2021/06/20 18:37:57;;;;;;;6.18;1.58;;;20.40;99.90;;;;;;20914546;28;20048;-50
2021/06/20 18:47:59;;;;;;;2.83;1.45;;;20.20;99.90;;;;;;20886192;28;20044;-50
2021/06/20 18:58:02;;;;;;;1.63;0.60;;;20.30;99.90;;;;;;20913306;28;20072;-50
2021/06/20 19:08:04;;;;;;;2.35;0.75;;;20.10;99.90;;;;;;20909947;28;20053;-50
2021/06/20 19:18:05;;;;;;;0.90;0.50;;;19.80;99.90;;;;;;20916068;28;20252;-50
2021/06/20 19:28:08;;;;;;;2.00;1.05;;;19.60;99.90;;;;;;20902858;28;20080;-50
2021/06/20 19:38:09;;;;;;;2.25;0.60;;;19.40;99.90;;;;;;20915034;28;20439;-50
2021/06/20 19:48:15;;;;;;;0.93;0.32;;;19.50;99.90;;;;;;20898640;28;20037;-49
2021/06/20 19:58:17;;;;;;;6.22;0.75;;;19.30;99.90;;;;;;20898891;28;20469;-49
2021/06/20 20:08:20;;;;;;;2.17;0.68;;;19.30;99.90;;;;;;20900706;28;20032;-49
2021/06/20 20:18:23;;;;;;;1.52;0.75;;;19.10;99.90;;;;;;20907777;28;20054;-50
2021/06/20 20:28:24;;;;;;;1.92;0.80;;;19.10;99.90;;;;;;20903174;28;20426;-50
2021/06/20 20:38:25;;;;;;;1.55;0.70;;;18.90;99.90;;;;;;20909757;28;20620;-50
2021/06/20 20:48:27;;;;;;;1.90;0.80;;;18.90;99.90;;;;;;20907500;28;20041;-50
2021/06/20 20:58:29;;;;;;;2.33;0.70;;;19.00;99.90;;;;;;20885319;28;20047;-50
2021/06/20 21:08:31;;;;;;;2.53;1.10;;;19.00;99.90;;;;;;20907817;28;20056;-50
2021/06/20 21:18:32;;;;;;;2.20;1.00;;;19.10;99.90;;;;;;20899511;28;20068;-50
2021/06/20 21:28:33;;;;;;;2.13;0.73;;;18.90;99.90;;;;;;20916303;28;20102;-50
2021/06/20 21:38:34;;;;;;;6.30;1.17;;;18.70;99.90;;;;;;20911356;28;20090;-49
2021/06/20 21:48:35;;;;;;;3.88;0.90;;;18.90;99.90;;;;;;20888309;28;20081;-50
2021/06/20 21:58:37;;;;;;;4.65;1.67;;;18.70;99.90;;;;;;20906872;28;20059;-50
2021/06/20 22:08:38;;;;;;;3.92;1.55;;;18.70;99.90;;;;;;20909371;28;20059;-49
2021/06/20 22:18:39;;;;;;;7.07;1.40;;;18.50;99.90;;;;;;20910365;28;20126;-49
2021/06/20 22:28:40;;;;;;;2.05;1.05;;;18.50;99.90;;;;;;20909605;28;20052;-49
2021/06/20 22:38:42;;;;;;;3.45;1.42;;;18.40;99.90;;;;;;20920081;28;20147;-49
2021/06/20 22:48:43;;;;;;;3.20;1.20;;;18.30;99.90;;;;;;20916560;28;20036;-49
2021/06/20 22:58:44;;;;;;;2.67;1.08;;;18.10;99.90;;;;;;20908201;28;20129;-49
2021/06/20 23:08:46;;;;;;;6.28;0.95;;;18.10;99.90;;;;;;20905781;28;20040;-49
2021/06/20 23:18:47;;;;;;;2.88;1.30;;;17.90;99.90;;;;;;20906505;28;20138;-49
2021/06/20 23:28:48;;;;;;;5.25;1.88;;;17.80;99.90;;;;;;20918089;28;20120;-49
2021/06/20 23:38:49;;;;;;;2.05;1.15;;;17.50;99.90;;;;;;20907066;28;20052;-49
2021/06/20 23:48:50;;;;;;;5.82;1.70;;;17.50;99.90;;;;;;20901878;28;20041;-49
2021/06/20 23:58:51;;;;;;;3.83;1.08;;;17.40;99.90;;;;;;20909985;28;20098;-49
